Weather at Tulelake Municipal Airport

Public forecast

Using degrees Fahrenheit for public forecast. Weather courtesy of forecast.io.

Closest aviation weather report (METAR) to Tulelake Municipal Airport

Closest report is Crater Lake-Klamath Regional Airport, 23.2 nm (43.0 km) NW. Retrieved 2021/06/20 09:53 UTC (20 minutes ago):

KLMT 200953Z AUTO 00000KT 10SM CLR 11/07 A3001 RMK AO2 SLP114 T01110067

Closest aviation forecast (TAF) to Tulelake Municipal Airport

Closest forecast is Crater Lake-Klamath Regional Airport, 23.2 nm (43.0 km) NW. Retrieved 2021/06/20 06:22 UTC (4 hours ago):

TAF KLMT 200520Z 2006/2106 33006KT P6SM SKC FM202300 31009G15KT P6SM FEW120 FM210400 31007KT P6SM SKC